Flight Number: AVA1790 Duration: 2:15
Departure: Kerkyra (Corfu) (LGKR) at 11:45 Distance: 790.35 Nm
Arrival: Frankfurt am Main (EDDF) at 14:00 Equipment: A321

Weather Information
Kerkyra Airport , Greece (LGKR) 39-37N 019-55E 4M Jun 19, 2024 - 08:50 AM EDT / 2024.06.19 1250 UTC
Wind: from the W (260 degrees) at 9 MPH (8 KT):0
Visibility: greater than 7 mile(s):0
Sky conditions: mostly clear Temperature: 98 F (37 C) Heat index: 100.0 F (37.8 C):1 Dew Point: 64 F (18 C) Relative Humidity: 32% Pressure (altimeter): 29.94 in. Hg (1014 hPa)
ob: LGKR 191250Z 26008KT 9999 FEW020 37/18 Q1014 NOSIG cycle: 13
Sunrise: 03:16 Sunset: 18:07 (UTC)

Frankfurt / M-Flughafen, Germany (EDDF) 50-03N 008-36E 113M Jun 19, 2024 - 08:50 AM EDT / 2024.06.19 1250 UTC
Wind: from the NNE (020 degrees) at 12 MPH (10 KT):0
Visibility: greater than 7 mile(s):0
Sky conditions: mostly cloudy Temperature: 64 F (18 C) Dew Point: 57 F (14 C) Relative Humidity: 77% Pressure (altimeter): 30.03 in. Hg (1017 hPa)
ob: EDDF 191250Z AUTO 02010KT 9999 FEW014 BKN023 BKN030 18/14 Q1017 NOSIG cycle: 13
Sunrise: 03:20 Sunset: 19:34 (UTC)

TAF:2024/06/19 12:28 TAF EDDF 191100Z 1912/2018 01008KT 9999 BKN015 TEMPO 1912/1914 2000 RA BKN014 BECMG 1914/1917 SCT015 PROB30 TEMPO 1921/2004 3000 BR BECMG 2006/2008 07008KT PROB40 TEMPO 2013/2016 4000 SHRA BKN020CB

Previous Pireps for this route
Date Flightnr Aircraft Flight time Fuel used Landing rate On time
2016-12-07AVA1664MD-8102.1714274-205Yes
2017-07-20AVA1790A32102.2213837-132Yes
(pireps marked green are flown by you)

Route map